Time;durP1;ratioP1;P1;durP2;ratioP2;P2;SDS_P1;SDS_P2;PMS_P1;PMS_P2;Temp;Humidity;BMP_temperature;BMP_pressure;BME280_temperature;BME280_humidity;BME280_pressure;Samples;Min_cycle;Max_cycle;Signal;HPM_P1;HPM_P2
2022/08/21 00:00:28;;;;;;;13.60;6.80;;;18.10;99.90;;;;;;5070357;28;20037;-92
2022/08/21 00:02:57;;;;;;;11.48;6.30;;;18.00;99.90;;;;;;5069588;28;20051;-93
2022/08/21 00:05:23;;;;;;;11.75;5.95;;;18.00;99.90;;;;;;5059867;28;20490;-92
2022/08/21 00:07:50;;;;;;;10.73;6.13;;;17.90;99.90;;;;;;5050216;28;20091;-93
2022/08/21 00:10:16;;;;;;;14.80;7.03;;;17.90;99.90;;;;;;5055743;28;20039;-92
2022/08/21 00:12:42;;;;;;;14.23;7.22;;;17.80;99.90;;;;;;5052644;28;20452;-92
2022/08/21 00:15:10;;;;;;;13.75;6.70;;;17.80;99.90;;;;;;5070212;28;20045;-92
2022/08/21 00:17:36;;;;;;;13.52;6.80;;;17.80;99.90;;;;;;5033307;28;20124;-92
2022/08/21 00:20:07;;;;;;;10.27;6.45;;;17.70;99.90;;;;;;5049293;28;20041;-92
2022/08/21 00:22:33;;;;;;;12.38;6.00;;;17.70;99.90;;;;;;5057651;28;20045;-92
2022/08/21 00:24:58;;;;;;;13.90;7.32;;;17.70;99.90;;;;;;5033306;28;20040;-93
2022/08/21 00:27:24;;;;;;;14.27;7.03;;;17.70;99.90;;;;;;5049196;28;20084;-92
2022/08/21 00:29:49;;;;;;;12.90;6.90;;;17.60;99.90;;;;;;5070038;28;20044;-92
2022/08/21 00:32:21;;;;;;;10.27;5.93;;;17.60;99.90;;;;;;5069884;28;20024;-91
2022/08/21 00:34:47;;;;;;;12.77;7.32;;;17.60;99.90;;;;;;5061391;28;20028;-92
2022/08/21 00:37:12;;;;;;;13.27;7.43;;;17.60;99.90;;;;;;5070337;28;20116;-92
2022/08/21 00:39:38;;;;;;;13.38;7.88;;;17.60;99.90;;;;;;5065569;28;20036;-92
2022/08/21 00:42:04;;;;;;;12.80;6.90;;;17.60;99.90;;;;;;5065728;28;20039;-92
2022/08/21 00:44:30;;;;;;;12.95;7.35;;;17.50;99.90;;;;;;5069962;28;20037;-92
2022/08/21 00:46:57;;;;;;;15.80;7.30;;;17.50;99.90;;;;;;5057888;28;20045;-91
2022/08/21 00:49:22;;;;;;;13.25;7.15;;;17.50;99.90;;;;;;5033009;28;20166;-93
2022/08/21 00:51:55;;;;;;;14.75;7.47;;;17.50;99.90;;;;;;5035535;28;20537;-93
2022/08/21 00:54:24;;;;;;;;;;;17.50;99.90;;;;;;5054544;28;20041;-93
2022/08/21 00:57:04;;;;;;;12.43;7.55;;;17.40;99.90;;;;;;5033182;28;20282;-93
2022/08/21 00:59:34;;;;;;;20.42;8.75;;;17.40;99.90;;;;;;5056400;28;20383;-93
2022/08/21 01:02:01;;;;;;;12.90;7.20;;;17.40;99.90;;;;;;5053024;28;20131;-93
2022/08/21 01:04:27;;;;;;;11.75;6.15;;;17.30;99.90;;;;;;5048013;28;20057;-92
2022/08/21 01:06:54;;;;;;;10.05;4.85;;;17.30;99.90;;;;;;5049555;28;20044;-93
2022/08/21 01:09:20;;;;;;;10.15;6.57;;;17.30;99.90;;;;;;5052917;28;20088;-92
2022/08/21 01:11:47;;;;;;;11.88;6.30;;;17.20;99.90;;;;;;5053891;28;20529;-93
2022/08/21 01:14:14;;;;;;;14.18;7.95;;;17.10;99.90;;;;;;5033326;28;20510;-93
2022/08/21 01:16:45;;;;;;;11.55;8.32;;;17.10;99.90;;;;;;5049888;28;20028;-92
2022/08/21 01:19:12;;;;;;;12.63;7.80;;;17.10;99.90;;;;;;5073307;28;20429;-92
2022/08/21 01:21:38;;;;;;;13.43;8.07;;;17.00;99.90;;;;;;5069975;28;20078;-93
2022/08/21 01:24:05;;;;;;;18.98;9.85;;;17.00;99.90;;;;;;5053001;28;20041;-92
2022/08/21 01:26:34;;;;;;;14.43;9.07;;;17.00;99.90;;;;;;5060800;28;20050;-92
2022/08/21 01:29:11;;;;;;;16.15;9.60;;;17.00;99.90;;;;;;5052978;28;20037;-93
2022/08/21 01:31:38;;;;;;;15.90;10.15;;;17.00;99.90;;;;;;5035654;28;20517;-92
2022/08/21 01:34:04;;;;;;;14.52;9.07;;;17.00;99.90;;;;;;5052427;28;20071;-92
2022/08/21 01:36:30;;;;;;;15.25;9.90;;;17.00;99.90;;;;;;5073071;28;20078;-93
2022/08/21 01:38:56;;;;;;;14.00;8.98;;;17.00;99.90;;;;;;5046155;28;20432;-93
2022/08/21 01:41:21;;;;;;;13.00;8.35;;;17.00;99.90;;;;;;5052513;28;20048;-92
2022/08/21 01:43:47;;;;;;;13.75;9.13;;;16.90;99.90;;;;;;5066885;28;20150;-92
2022/08/21 01:46:14;;;;;;;12.30;8.07;;;16.80;99.90;;;;;;5072591;28;20044;-92
2022/08/21 01:48:40;;;;;;;14.00;7.57;;;16.80;99.90;;;;;;5072259;28;20043;-93
2022/08/21 01:51:07;;;;;;;13.38;7.97;;;16.70;99.90;;;;;;5055725;28;20051;-92
2022/08/21 01:53:36;;;;;;;14.32;9.52;;;16.70;99.90;;;;;;5052562;28;20101;-92
2022/08/21 01:56:05;;;;;;;14.57;8.63;;;16.60;99.90;;;;;;5060495;28;20037;-92
2022/08/21 01:58:33;;;;;;;15.43;9.30;;;16.60;99.90;;;;;;5035974;28;20036;-92
2022/08/21 02:01:00;;;;;;;15.20;8.75;;;16.60;99.90;;;;;;5040507;28;20048;-93
2022/08/21 02:03:26;;;;;;;12.82;9.32;;;16.60;99.90;;;;;;5041537;28;20041;-92
2022/08/21 02:05:51;;;;;;;13.73;9.77;;;16.60;99.90;;;;;;5072334;28;20043;-93
2022/08/21 02:08:17;;;;;;;15.27;12.38;;;16.60;99.90;;;;;;5047287;28;20033;-92
2022/08/21 02:10:43;;;;;;;13.30;10.35;;;16.50;99.90;;;;;;5051801;28;20035;-92
2022/08/21 02:13:09;;;;;;;15.98;11.88;;;16.50;99.90;;;;;;5051992;28;20052;-92
2022/08/21 02:15:34;;;;;;;16.83;12.70;;;16.50;99.90;;;;;;5053900;28;20392;-92
2022/08/21 02:18:01;;;;;;;14.43;10.55;;;16.50;99.90;;;;;;5055655;28;20661;-92
2022/08/21 02:20:31;;;;;;;16.27;12.48;;;16.50;99.90;;;;;;5072889;28;20040;-92
2022/08/21 02:22:57;;;;;;;20.20;14.07;;;16.50;99.90;;;;;;5071511;28;20041;-92
2022/08/21 02:25:24;;;;;;;20.27;16.38;;;16.40;99.90;;;;;;5053917;28;20539;-92
2022/08/21 02:27:50;;;;;;;16.77;12.63;;;16.40;99.90;;;;;;5034547;28;20036;-93
2022/08/21 02:30:23;;;;;;;20.38;15.43;;;16.40;99.90;;;;;;5035258;28;20146;-92
2022/08/21 02:32:49;;;;;;;14.30;10.85;;;16.40;99.90;;;;;;5039666;28;20501;-92
2022/08/21 02:35:15;;;;;;;17.80;8.57;;;16.30;99.90;;;;;;5054510;28;20115;-92
2022/08/21 02:37:56;;;;;;;18.90;14.38;;;16.20;99.90;;;;;;5071824;28;20127;-92
2022/08/21 02:40:26;;;;;;;19.77;15.02;;;16.20;99.90;;;;;;5043231;28;20052;-92
2022/08/21 02:42:52;;;;;;;19.75;15.02;;;16.20;99.90;;;;;;5051564;28;20032;-92
2022/08/21 02:45:19;;;;;;;16.70;11.90;;;16.20;99.90;;;;;;5051164;28;20163;-93
2022/08/21 02:47:55;;;;;;;16.15;13.30;;;16.20;99.90;;;;;;5050794;28;20044;-92
2022/08/21 02:50:28;;;;;;;16.15;12.27;;;16.20;99.90;;;;;;5046706;28;20041;-92
2022/08/21 02:52:54;;;;;;;19.00;14.25;;;16.20;99.90;;;;;;5034488;28;20041;-92
2022/08/21 02:55:21;;;;;;;14.65;8.02;;;16.20;99.90;;;;;;5056579;28;20036;-93
2022/08/21 02:57:47;;;;;;;19.13;13.77;;;16.10;99.90;;;;;;5054139;28;20033;-93
2022/08/21 03:00:14;;;;;;;17.38;13.48;;;16.10;99.90;;;;;;5051230;28;20070;-92
2022/08/21 03:02:40;;;;;;;14.75;8.27;;;16.10;99.90;;;;;;5064200;28;20036;-93
2022/08/21 03:05:08;;;;;;;12.98;10.80;;;16.00;99.90;;;;;;5071186;28;20047;-92
2022/08/21 03:07:34;;;;;;;13.18;11.00;;;16.00;99.90;;;;;;5054982;28;20109;-92
2022/08/21 03:10:00;;;;;;;16.25;12.15;;;16.00;99.90;;;;;;5059008;28;20037;-93
2022/08/21 03:12:25;;;;;;;14.82;11.60;;;16.00;99.90;;;;;;5050977;28;20033;-92
2022/08/21 03:14:51;;;;;;;16.38;11.90;;;16.00;99.90;;;;;;5050714;28;20486;-92
2022/08/21 03:17:16;;;;;;;16.50;12.95;;;16.00;99.90;;;;;;5051300;28;20565;-93
2022/08/21 03:19:42;;;;;;;16.27;11.52;;;16.00;99.90;;;;;;5042377;28;20429;-92
2022/08/21 03:22:07;;;;;;;16.92;12.10;;;16.00;99.90;;;;;;5050715;28;20063;-92
2022/08/21 03:24:33;;;;;;;12.88;6.82;;;16.00;99.90;;;;;;5049979;28;20043;-92
2022/08/21 03:26:59;;;;;;;16.85;12.02;;;15.90;99.90;;;;;;5034410;28;20045;-92
2022/08/21 03:29:25;;;;;;;16.55;11.73;;;15.90;99.90;;;;;;5050555;28;20452;-92
2022/08/21 03:31:53;;;;;;;12.93;10.38;;;15.90;99.90;;;;;;5066788;28;20040;-92
2022/08/21 03:34:19;;;;;;;15.38;11.23;;;15.90;99.90;;;;;;5070725;28;20441;-93
2022/08/21 03:36:45;;;;;;;10.77;6.00;;;15.90;99.90;;;;;;5069890;28;20062;-93
2022/08/21 03:39:11;;;;;;;13.27;8.90;;;15.80;99.90;;;;;;5061916;28;20074;-92
2022/08/21 03:41:37;;;;;;;13.55;9.20;;;15.80;99.90;;;;;;5070548;28;20082;-92
2022/08/21 03:44:02;;;;;;;12.23;9.15;;;15.80;99.90;;;;;;5052925;28;20037;-92
2022/08/21 03:46:28;;;;;;;12.07;8.00;;;15.80;99.90;;;;;;5070141;28;20075;-92
2022/08/21 03:48:55;;;;;;;14.05;9.73;;;15.80;99.90;;;;;;5068171;28;20434;-93
2022/08/21 03:51:21;;;;;;;14.57;10.70;;;15.70;99.90;;;;;;5046555;28;20044;-93
2022/08/21 03:53:46;;;;;;;15.45;9.98;;;15.80;99.90;;;;;;5053678;28;20059;-92
2022/08/21 03:56:12;;;;;;;12.68;6.55;;;15.80;99.90;;;;;;5065031;28;20082;-93
2022/08/21 03:58:38;;;;;;;14.05;11.13;;;15.70;99.90;;;;;;5066143;28;20047;-92
2022/08/21 04:01:05;;;;;;;14.68;9.82;;;15.70;99.90;;;;;;5069679;28;20569;-92
2022/08/21 04:03:33;;;;;;;14.70;9.25;;;15.80;99.90;;;;;;5061099;28;20042;-92
2022/08/21 04:05:59;;;;;;;12.52;9.40;;;15.80;99.90;;;;;;5070465;28;20135;-92
2022/08/21 04:08:25;;;;;;;13.88;9.25;;;15.70;99.90;;;;;;5060790;28;20119;-92
2022/08/21 04:10:54;;;;;;;13.95;9.73;;;15.70;99.90;;;;;;5069877;28;20044;-94
2022/08/21 04:13:20;;;;;;;13.23;9.02;;;15.80;99.90;;;;;;5053279;28;20032;-92
2022/08/21 04:15:46;;;;;;;12.32;6.18;;;15.70;99.90;;;;;;5069429;28;20497;-92
2022/08/21 04:18:11;;;;;;;16.35;9.65;;;15.60;99.90;;;;;;5053608;28;20104;-93
2022/08/21 04:20:37;;;;;;;12.80;9.95;;;15.60;99.90;;;;;;5063541;28;20136;-92
2022/08/21 04:23:03;;;;;;;12.07;9.60;;;15.70;99.90;;;;;;5050070;28;20110;-92
2022/08/21 04:25:29;;;;;;;12.60;10.13;;;15.70;99.90;;;;;;5069968;28;20493;-92
2022/08/21 04:27:54;;;;;;;9.93;6.13;;;15.60;99.90;;;;;;5060538;28;20131;-92
2022/08/21 04:30:20;;;;;;;13.40;9.95;;;15.60;99.90;;;;;;5052872;28;20616;-92
2022/08/21 04:32:48;;;;;;;15.20;10.02;;;15.60;99.90;;;;;;5047413;28;20033;-93
2022/08/21 04:35:16;;;;;;;14.02;10.77;;;15.50;99.90;;;;;;5066302;28;20044;-93
2022/08/21 04:37:42;;;;;;;13.13;6.50;;;15.60;99.90;;;;;;5053164;28;20170;-92
2022/08/21 04:40:10;;;;;;;14.32;10.63;;;15.50;99.90;;;;;;5043800;28;20124;-92
2022/08/21 04:42:45;;;;;;;13.57;10.07;;;15.50;99.90;;;;;;5069604;28;20044;-92
2022/08/21 04:45:26;;;;;;;11.57;7.10;;;15.50;99.90;;;;;;5043045;28;20041;-92
2022/08/21 04:47:54;;;;;;;14.48;10.52;;;15.50;99.90;;;;;;5069857;28;20398;-93
2022/08/21 04:50:27;;;;;;;16.08;11.07;;;15.50;99.90;;;;;;5058395;28;20059;-93
2022/08/21 04:52:54;;;;;;;15.60;10.70;;;15.50;99.90;;;;;;5036334;28;20037;-92
2022/08/21 04:55:21;;;;;;;13.05;6.93;;;15.50;99.90;;;;;;5053832;28;20040;-92
2022/08/21 04:57:49;;;;;;;13.75;10.07;;;15.50;99.90;;;;;;5065428;28;20045;-92
2022/08/21 05:00:18;;;;;;;13.40;10.10;;;15.50;99.90;;;;;;5056858;28;20082;-93
2022/08/21 05:02:44;;;;;;;14.05;10.13;;;15.50;99.90;;;;;;5056463;28;20090;-92
2022/08/21 05:05:10;;;;;;;13.32;7.03;;;15.50;99.90;;;;;;5057204;28;20119;-92
2022/08/21 05:07:36;;;;;;;14.05;9.93;;;15.50;99.90;;;;;;5036573;28;20048;-92
2022/08/21 05:10:02;;;;;;;15.48;10.73;;;15.50;99.90;;;;;;5061556;28;20050;-93
2022/08/21 05:12:28;;;;;;;14.23;9.82;;;15.50;99.90;;;;;;5036545;28;20414;-93
2022/08/21 05:14:54;;;;;;;15.10;10.40;;;15.50;99.90;;;;;;5053038;28;20033;-92
2022/08/21 05:17:19;;;;;;;17.48;15.57;;;15.50;99.90;;;;;;5053007;28;20045;-92
2022/08/21 05:19:45;;;;;;;18.83;14.70;;;15.60;99.90;;;;;;5053596;28;20044;-92
2022/08/21 05:22:10;;;;;;;13.93;8.50;;;15.50;99.90;;;;;;5059251;28;20032;-92
2022/08/21 05:24:36;;;;;;;15.93;13.48;;;15.50;99.90;;;;;;5037929;28;20502;-92
2022/08/21 05:27:01;;;;;;;17.20;13.18;;;15.50;99.90;;;;;;5055843;28;20036;-92
2022/08/21 05:29:30;;;;;;;15.50;11.27;;;15.60;99.90;;;;;;5041754;28;20449;-93
2022/08/21 05:31:56;;;;;;;16.33;11.40;;;15.60;99.90;;;;;;5035852;28;20116;-92
2022/08/21 05:34:23;;;;;;;13.13;11.45;;;15.60;99.90;;;;;;5054144;28;20111;-92
2022/08/21 05:36:48;;;;;;;11.73;6.72;;;15.60;99.90;;;;;;5055978;28;20045;-93
2022/08/21 05:39:14;;;;;;;15.32;9.38;;;15.60;99.90;;;;;;5070625;28;20036;-93
2022/08/21 05:41:40;;;;;;;13.70;8.80;;;15.60;99.90;;;;;;5054020;28;20090;-92
2022/08/21 05:44:06;;;;;;;14.32;8.65;;;15.70;99.90;;;;;;5056103;28;20071;-93
2022/08/21 05:46:31;;;;;;;12.13;6.03;;;15.70;99.90;;;;;;5072086;28;20044;-92
2022/08/21 05:48:57;;;;;;;14.52;8.75;;;15.70;99.90;;;;;;5072886;28;20049;-92
2022/08/21 05:51:23;;;;;;;13.32;9.80;;;15.70;99.90;;;;;;5054927;28;20440;-92
2022/08/21 05:53:48;;;;;;;14.63;10.70;;;15.80;99.90;;;;;;5036544;28;20087;-92
2022/08/21 05:56:15;;;;;;;18.65;15.77;;;15.80;99.90;;;;;;5036124;28;20043;-93
2022/08/21 05:58:41;;;;;;;16.55;14.75;;;15.90;99.90;;;;;;5035614;28;20059;-93
2022/08/21 06:01:08;;;;;;;20.80;17.92;;;16.00;99.90;;;;;;5050973;28;20128;-92
2022/08/21 06:03:36;;;;;;;21.70;16.98;;;16.00;99.90;;;;;;5065411;28;20067;-93
2022/08/21 06:06:02;;;;;;;17.92;14.05;;;16.10;99.90;;;;;;5055300;28;20072;-93
2022/08/21 06:08:28;;;;;;;12.88;8.40;;;16.10;99.90;;;;;;5072143;28;20051;-92
2022/08/21 06:10:56;;;;;;;13.93;7.45;;;16.20;99.90;;;;;;5072223;28;20036;-93
2022/08/21 06:13:22;;;;;;;11.77;5.18;;;16.20;99.90;;;;;;5066276;28;20441;-93
2022/08/21 06:15:48;;;;;;;13.00;7.10;;;16.20;99.90;;;;;;5052500;28;20397;-92
2022/08/21 06:18:14;;;;;;;12.20;7.88;;;16.30;99.90;;;;;;5052047;28;20037;-93
2022/08/21 06:20:40;;;;;;;12.15;7.38;;;16.40;99.90;;;;;;5035662;28;20033;-93
2022/08/21 06:23:06;;;;;;;13.13;8.10;;;16.40;99.90;;;;;;5052126;28;20041;-93
2022/08/21 06:25:32;;;;;;;14.40;8.38;;;16.50;99.90;;;;;;5051313;28;20091;-93
2022/08/21 06:28:06;;;;;;;12.23;7.88;;;16.50;99.90;;;;;;5051852;28;20470;-93
2022/08/21 06:30:33;;;;;;;15.02;7.55;;;16.60;99.90;;;;;;5051326;28;20044;-93
2022/08/21 06:32:58;;;;;;;10.63;5.55;;;16.60;99.90;;;;;;5035267;28;20403;-93
2022/08/21 06:35:28;;;;;;;14.10;7.40;;;16.60;99.90;;;;;;5053598;28;20498;-93
2022/08/21 06:37:54;;;;;;;13.68;7.50;;;16.70;99.90;;;;;;5071808;28;20063;-92
2022/08/21 06:40:20;;;;;;;12.23;7.47;;;16.70;99.90;;;;;;5071600;28;20037;-93
2022/08/21 06:42:45;;;;;;;16.67;7.22;;;16.80;99.90;;;;;;5062000;28;20081;-93
2022/08/21 06:45:11;;;;;;;14.20;5.82;;;16.80;99.90;;;;;;5071338;28;20045;-92
2022/08/21 06:47:37;;;;;;;12.32;7.75;;;16.90;99.90;;;;;;5070973;28;20037;-92
2022/08/21 06:50:03;;;;;;;12.88;7.10;;;16.90;99.90;;;;;;5039840;28;20040;-92
2022/08/21 06:52:29;;;;;;;12.80;7.60;;;17.00;99.90;;;;;;5034433;28;20552;-93
2022/08/21 06:54:54;;;;;;;14.18;7.28;;;17.10;99.90;;;;;;5061273;28;20036;-93
2022/08/21 06:57:20;;;;;;;14.70;7.60;;;17.20;99.90;;;;;;5054853;28;20062;-93
2022/08/21 06:59:45;;;;;;;12.52;6.60;;;17.20;99.90;;;;;;5070003;28;20032;-93
2022/08/21 07:02:11;;;;;;;13.95;7.05;;;17.30;99.90;;;;;;5071130;28;20071;-93
2022/08/21 07:04:36;;;;;;;12.90;6.95;;;17.40;99.90;;;;;;5071385;28;20051;-93
2022/08/21 07:07:02;;;;;;;13.20;6.43;;;17.50;99.90;;;;;;5070576;28;20502;-93
2022/08/21 07:09:28;;;;;;;13.00;6.55;;;17.60;99.90;;;;;;5071164;28;20409;-93
2022/08/21 07:11:56;;;;;;;13.07;5.75;;;17.60;99.90;;;;;;5070716;28;20063;-93
2022/08/21 07:14:22;;;;;;;11.60;5.60;;;17.70;99.90;;;;;;5070409;28;20093;-92
2022/08/21 07:16:48;;;;;;;15.90;6.68;;;17.80;99.90;;;;;;5071266;28;20068;-93
2022/08/21 07:19:14;;;;;;;14.63;6.05;;;17.90;99.90;;;;;;5051250;28;20044;-93
2022/08/21 07:21:40;;;;;;;12.48;5.38;;;18.00;99.90;;;;;;5034001;28;20044;-93
2022/08/21 07:24:06;;;;;;;12.23;5.07;;;18.10;99.90;;;;;;5058312;28;20529;-93
2022/08/21 07:26:31;;;;;;;13.18;5.55;;;18.20;99.90;;;;;;5051163;28;20116;-93
2022/08/21 07:28:57;;;;;;;12.32;5.25;;;18.30;99.90;;;;;;5053983;28;20509;-92
2022/08/21 07:31:24;;;;;;;13.35;5.80;;;18.30;99.90;;;;;;5064703;28;20075;-93
2022/08/21 07:33:50;;;;;;;11.38;5.45;;;18.40;99.90;;;;;;5070771;28;20045;-94
2022/08/21 07:36:17;;;;;;;11.57;5.28;;;18.50;99.90;;;;;;5042090;28;20047;-93
2022/08/21 07:38:43;;;;;;;13.43;5.03;;;18.60;99.90;;;;;;5050771;28;20120;-93
2022/08/21 07:41:25;;;;;;;12.18;5.40;;;18.60;99.90;;;;;;5058632;28;20631;-93
2022/08/21 07:43:51;;;;;;;13.25;5.25;;;18.80;99.90;;;;;;5050508;28;20049;-93
2022/08/21 07:46:16;;;;;;;13.38;5.80;;;18.80;99.90;;;;;;5054105;28;20086;-93
2022/08/21 07:48:42;;;;;;;12.20;5.55;;;18.90;99.90;;;;;;5070423;28;20043;-94
2022/08/21 07:51:11;;;;;;;12.35;5.45;;;18.90;99.90;;;;;;5069943;28;20048;-93
2022/08/21 07:53:38;;;;;;;12.75;5.22;;;19.00;99.90;;;;;;5060835;28;20044;-93
2022/08/21 07:56:05;;;;;;;15.40;5.75;;;19.00;99.90;;;;;;5070513;28;20040;-93
2022/08/21 07:58:31;;;;;;;14.00;4.90;;;19.10;99.90;;;;;;5046897;28;20052;-93
2022/08/21 08:00:57;;;;;;;12.02;5.00;;;19.20;99.90;;;;;;5049983;28;20437;-93
2022/08/21 08:03:23;;;;;;;15.45;5.05;;;19.30;99.90;;;;;;5050415;28;20524;-94
2022/08/21 08:05:49;;;;;;;11.82;4.75;;;19.30;99.90;;;;;;5057856;28;20182;-93
2022/08/21 08:08:16;;;;;;;13.20;5.15;;;19.40;99.90;;;;;;5050221;28;20064;-93
2022/08/21 08:10:42;;;;;;;13.10;4.82;;;19.40;99.90;;;;;;5056577;28;20482;-93
2022/08/21 08:13:08;;;;;;;13.57;5.45;;;19.50;99.90;;;;;;5051108;28;20045;-93
2022/08/21 08:15:34;;;;;;;12.15;4.22;;;19.60;99.90;;;;;;5049912;28;20369;-93
2022/08/21 08:18:00;;;;;;;12.88;4.88;;;19.70;99.90;;;;;;5047089;28;20064;-94
2022/08/21 08:20:26;;;;;;;11.27;4.50;;;19.70;99.90;;;;;;5069575;28;20532;-93
2022/08/21 08:22:53;;;;;;;11.23;4.05;;;19.70;99.90;;;;;;5043580;28;20045;-94
2022/08/21 08:25:22;;;;;;;11.48;3.97;;;19.80;99.90;;;;;;5070100;28;20047;-95
2022/08/21 08:27:48;;;;;;;14.57;4.95;;;19.80;99.90;;;;;;5052791;28;20146;-94
2022/08/21 08:30:16;;;;;;;11.23;4.25;;;19.90;99.90;;;;;;5055431;28;20037;-94
2022/08/21 08:32:42;;;;;;;10.88;3.40;;;19.90;99.90;;;;;;5049834;28;20041;-94
2022/08/21 08:35:08;;;;;;;10.77;4.47;;;20.00;99.90;;;;;;5057817;28;20494;-93
2022/08/21 08:37:37;;;;;;;11.23;3.75;;;20.10;99.90;;;;;;5049861;28;20052;-95
2022/08/21 08:40:05;;;;;;;11.52;4.32;;;20.10;99.90;;;;;;5033131;28;20041;-94
2022/08/21 08:42:35;;;;;;;11.45;3.95;;;20.20;99.90;;;;;;5065501;28;20055;-94
2022/08/21 08:45:08;;;;;;;13.77;4.40;;;20.20;99.90;;;;;;5069801;28;20045;-94
2022/08/21 08:47:41;;;;;;;12.35;4.13;;;20.30;99.90;;;;;;5040516;28;20080;-94
2022/08/21 08:50:21;;;;;;;12.30;3.95;;;20.50;99.90;;;;;;5049677;28;20119;-94
2022/08/21 08:52:59;;;;;;;12.35;4.10;;;20.50;99.90;;;;;;5038541;28;20405;-94
2022/08/21 08:55:52;;;;;;;11.02;4.40;;;20.50;99.90;;;;;;5050263;28;20122;-94
2022/08/21 08:58:31;;;;;;;11.05;4.32;;;20.60;99.90;;;;;;5046321;28;20558;-94
2022/08/21 09:00:59;;;;;;;10.95;3.42;;;20.60;99.90;;;;;;5048821;28;20736;-94
2022/08/21 09:03:26;;;;;;;9.88;3.63;;;20.70;99.90;;;;;;5050431;28;20102;-94
2022/08/21 09:06:00;;;;;;;9.23;3.38;;;20.80;99.90;;;;;;5036918;28;20113;-95
2022/08/21 09:08:58;;;;;;;9.93;3.40;;;20.80;99.90;;;;;;5035887;28;20239;-93
2022/08/21 09:11:23;;;;;;;11.45;3.88;;;20.80;99.90;;;;;;5021831;28;20573;-94
2022/08/21 09:13:52;;;;;;;12.88;3.95;;;20.80;99.90;;;;;;5050170;28;20074;-94
2022/08/21 09:16:39;;;;;;;12.38;3.72;;;20.80;99.90;;;;;;5069743;28;20559;-94
2022/08/21 09:19:21;;;;;;;10.73;3.53;;;20.90;99.90;;;;;;5048967;28;20044;-94
2022/08/21 09:22:07;;;;;;;10.77;3.15;;;21.00;99.90;;;;;;5032970;28;20127;-94
2022/08/21 09:24:54;;;;;;;10.43;4.05;;;21.10;99.90;;;;;;5057403;28;20037;-94
2022/08/21 09:27:22;;;;;;;11.90;3.47;;;21.00;99.90;;;;;;5049459;28;20055;-94
2022/08/21 09:29:50;;;;;;;9.25;3.58;;;21.00;99.90;;;;;;5041499;28;20033;-94
2022/08/21 09:32:25;;;;;;;12.35;3.25;;;20.90;99.90;;;;;;5049062;28;20053;-95
2022/08/21 09:35:19;;;;;;;11.68;3.25;;;20.80;99.90;;;;;;5057280;28;20119;-94
2022/08/21 09:37:53;;;;;;;9.88;3.58;;;20.70;99.90;;;;;;5050958;28;20048;-94
2022/08/21 09:40:44;;;;;;;9.77;3.38;;;20.70;99.90;;;;;;5056789;28;20078;-94
2022/08/21 09:43:12;;;;;;;8.55;2.95;;;20.80;99.90;;;;;;5072608;28;20099;-94
2022/08/21 09:45:41;;;;;;;11.23;3.85;;;20.90;99.90;;;;;;5071950;28;20041;-94
2022/08/21 09:48:19;;;;;;;8.98;3.80;;;21.10;99.90;;;;;;5072218;28;20102;-94
2022/08/21 09:50:45;;;;;;;11.40;3.83;;;21.20;99.90;;;;;;5072694;28;20039;-94
2022/08/21 09:53:25;;;;;;;9.02;3.83;;;21.30;99.90;;;;;;5071639;28;20024;-94
2022/08/21 09:58:48;;;;;;;12.40;3.58;;;21.50;99.90;;;;;;5056095;28;20044;-94
2022/08/21 10:01:18;;;;;;;11.35;3.60;;;21.60;99.90;;;;;;5072273;28;20037;-94
2022/08/21 10:03:44;;;;;;;13.07;3.80;;;21.70;99.90;;;;;;5071551;28;20390;-95
2022/08/21 10:06:22;;;;;;;11.50;3.38;;;21.70;99.90;;;;;;5054435;28;20124;-94
2022/08/21 10:08:48;;;;;;;10.13;3.53;;;21.80;99.90;;;;;;5052602;28;20047;-94
2022/08/21 10:11:16;;;;;;;11.10;3.33;;;21.80;99.90;;;;;;5052267;28;20037;-94
2022/08/21 10:14:13;;;;;;;11.77;3.50;;;21.80;99.90;;;;;;5055069;28;20043;-94
2022/08/21 10:17:04;;;;;;;10.25;3.67;;;21.90;99.90;;;;;;5063386;28;20461;-94
2022/08/21 10:19:45;;;;;;;14.65;3.95;;;22.00;99.90;;;;;;5071758;28;20091;-95
2022/08/21 10:22:25;;;;;;;11.70;3.45;;;22.00;99.90;;;;;;5069387;28;20522;-94
2022/08/21 10:25:10;;;;;;;10.15;2.72;;;22.20;99.90;;;;;;5066966;28;20094;-94
2022/08/21 10:27:56;;;;;;;10.63;2.85;;;22.20;99.90;;;;;;5071964;28;20505;-95
2022/08/21 10:30:43;;;;;;;9.90;3.13;;;22.30;99.90;;;;;;5041588;28;20185;-94
2022/08/21 10:33:19;;;;;;;11.50;3.30;;;22.40;99.90;;;;;;5051225;28;20047;-94
2022/08/21 10:36:11;;;;;;;11.25;3.08;;;22.40;99.90;;;;;;5059660;28;20033;-94
2022/08/21 10:38:59;;;;;;;10.77;3.05;;;22.50;99.90;;;;;;5051999;28;20502;-94
2022/08/21 10:41:58;;;;;;;10.45;3.08;;;22.50;99.90;;;;;;5050835;28;20036;-95
2022/08/21 10:44:38;;;;;;;9.52;2.72;;;22.60;99.90;;;;;;5068696;28;20127;-94
2022/08/21 10:47:31;;;;;;;10.93;3.00;;;22.70;99.90;;;;;;5053916;28;20048;-94
2022/08/21 10:50:30;;;;;;;11.27;3.30;;;22.70;99.90;;;;;;5059637;28;20041;-94
2022/08/21 10:53:16;;;;;;;9.65;2.75;;;22.80;99.90;;;;;;5033739;28;20563;-94
2022/08/21 10:55:54;;;;;;;9.02;2.30;;;22.80;99.90;;;;;;5060402;28;20063;-95
2022/08/21 10:58:30;;;;;;;11.32;2.53;;;22.80;99.90;;;;;;5071365;28;20127;-95
2022/08/21 11:01:11;;;;;;;11.30;2.88;;;22.90;99.90;;;;;;5050720;28;20044;-94
2022/08/21 11:03:44;;;;;;;12.95;2.75;;;23.00;99.90;;;;;;5049271;28;20468;-94
2022/08/21 11:06:21;;;;;;;9.68;2.70;;;23.00;99.80;;;;;;5054141;28;20251;-94
2022/08/21 11:08:54;;;;;;;9.85;2.50;;;22.90;99.80;;;;;;5046459;28;20037;-94
2022/08/21 11:11:35;;;;;;;9.05;2.58;;;23.00;99.90;;;;;;5069690;28;20486;-95
2022/08/21 11:14:28;;;;;;;10.13;2.50;;;23.10;99.50;;;;;;5045344;28;20029;-95
2022/08/21 11:17:07;;;;;;;8.60;2.45;;;23.20;99.60;;;;;;5050295;28;20049;-94
2022/08/21 11:20:05;;;;;;;9.95;2.33;;;23.20;98.30;;;;;;5042719;28;20040;-94
2022/08/21 11:22:47;;;;;;;10.02;2.22;;;23.30;98.90;;;;;;5054055;28;20052;-94
2022/08/21 11:25:33;;;;;;;10.05;1.92;;;23.40;99.00;;;;;;5067295;28;20036;-94
2022/08/21 11:28:03;;;;;;;9.15;2.00;;;23.50;97.80;;;;;;5050190;28;20041;-95
2022/08/21 11:30:44;;;;;;;7.93;1.92;;;23.50;97.20;;;;;;5055744;28;20218;-95
2022/08/21 11:33:16;;;;;;;10.80;2.33;;;23.60;94.70;;;;;;5048792;28;20079;-94
2022/08/21 11:35:54;;;;;;;9.45;2.55;;;23.70;97.20;;;;;;5049635;28;20037;-94
2022/08/21 11:38:48;;;;;;;10.63;2.35;;;23.90;95.40;;;;;;5057991;28;20071;-95
2022/08/21 11:41:23;;;;;;;8.85;2.13;;;24.00;97.20;;;;;;5042786;28;20491;-95
2022/08/21 11:43:58;;;;;;;9.80;2.05;;;24.10;98.70;;;;;;5033969;28;20561;-95
2022/08/21 11:46:59;;;;;;;11.02;2.50;;;24.10;94.60;;;;;;5046206;28;20048;-94
2022/08/21 11:49:51;;;;;;;10.75;2.40;;;24.00;94.50;;;;;;5057228;28;20493;-94
2022/08/21 11:52:37;;;;;;;9.80;2.10;;;24.00;97.80;;;;;;5061768;28;20037;-94
2022/08/21 11:55:41;;;;;;;8.80;2.28;;;24.10;95.80;;;;;;5069284;28;20040;-94
2022/08/21 11:58:15;;;;;;;12.52;2.92;;;24.40;95.80;;;;;;5031396;28;20452;-94
2022/08/21 12:00:49;;;;;;;8.68;2.22;;;24.50;96.20;;;;;;5042326;28;20051;-94
2022/08/21 12:03:25;;;;;;;8.55;2.20;;;24.60;92.20;;;;;;5012012;28;20159;-95
2022/08/21 12:05:56;;;;;;;11.15;2.10;;;24.70;90.20;;;;;;5011851;28;20136;-95
2022/08/21 12:08:32;;;;;;;10.13;2.30;;;24.60;86.40;;;;;;5011597;28;20049;-93
2022/08/21 12:11:21;;;;;;;7.38;1.98;;;24.50;91.10;;;;;;5012886;28;20048;-94
2022/08/21 12:14:06;;;;;;;10.57;2.38;;;24.60;91.60;;;;;;5031636;28;20060;-95
2022/08/21 12:16:33;;;;;;;9.93;2.28;;;24.60;93.60;;;;;;5024104;28;20313;-94
2022/08/21 12:19:12;;;;;;;8.93;2.35;;;24.70;93.20;;;;;;5014665;28;20132;-94
2022/08/21 12:21:51;;;;;;;9.02;2.08;;;24.90;90.40;;;;;;5031430;28;20414;-94
2022/08/21 12:24:35;;;;;;;9.27;2.10;;;25.10;90.60;;;;;;5028114;28;20033;-94
2022/08/21 12:27:26;;;;;;;11.20;2.45;;;25.00;82.20;;;;;;5030972;28;20088;-94
2022/08/21 12:30:07;;;;;;;9.63;2.10;;;24.90;85.80;;;;;;5014909;28;20052;-94
2022/08/21 12:33:25;;;;;;;12.68;2.35;;;24.80;82.50;;;;;;5020031;28;20056;-94
2022/08/21 12:36:00;;;;;;;8.60;2.13;;;24.80;87.30;;;;;;5035970;28;20074;-94
2022/08/21 12:38:39;;;;;;;9.20;1.80;;;25.00;85.80;;;;;;5049133;28;20044;-94
2022/08/21 12:41:10;;;;;;;9.85;2.28;;;25.20;83.10;;;;;;5057047;28;20582;-95
2022/08/21 12:43:50;;;;;;;8.63;2.00;;;25.30;84.30;;;;;;5069376;28;20068;-94
2022/08/21 12:46:25;;;;;;;8.02;1.88;;;25.30;81.70;;;;;;5060965;28;20486;-95
2022/08/21 12:49:04;;;;;;;9.52;2.13;;;25.10;79.50;;;;;;5049657;28;20046;-94
2022/08/21 12:51:36;;;;;;;10.35;2.55;;;25.00;81.00;;;;;;5039224;28;20041;-94
2022/08/21 12:54:02;;;;;;;9.65;2.30;;;24.90;81.70;;;;;;5048955;28;20048;-95
2022/08/21 12:56:33;;;;;;;11.32;2.58;;;24.80;90.70;;;;;;5032679;28;20037;-94